createdAt,value
2023-03-27T00:00:20.320Z,100158.56
2023-03-27T00:03:24.617Z,100174.03
2023-03-27T00:06:27.447Z,100175.66
2023-03-27T00:09:32.087Z,100177.31
2023-03-27T00:12:35.053Z,100182.28
2023-03-27T00:15:40.862Z,100182.38
2023-03-27T00:18:45.144Z,100194.56
2023-03-27T00:21:48.651Z,100185.81
2023-03-27T00:24:52.080Z,100205.66
2023-03-27T00:27:56.323Z,100203.78
2023-03-27T00:31:00.686Z,100209.88
2023-03-27T00:34:03.664Z,100219.66
2023-03-27T00:37:06.649Z,100220.13
2023-03-27T00:40:13.679Z,100221.09
2023-03-27T00:43:24.463Z,100227.84
2023-03-27T00:46:37.508Z,100230.31
2023-03-27T00:49:40.619Z,100231.31
2023-03-27T00:52:48.673Z,100234.53
2023-03-27T00:55:54.353Z,100230.31
2023-03-27T00:59:01.741Z,100243.53
2023-03-27T01:02:06.578Z,100256.06
2023-03-27T01:05:11.159Z,100265.09
2023-03-27T01:08:15.624Z,100281.81
2023-03-27T01:11:29.135Z,100280.66
2023-03-27T01:14:38.978Z,100284.28
2023-03-27T01:17:56.637Z,100274.91
2023-03-27T01:21:49.858Z,100279.44
2023-03-27T01:25:14.730Z,100280.28
2023-03-27T01:28:37.001Z,100294.78
2023-03-27T01:31:53.298Z,100300.50
2023-03-27T01:35:25.323Z,100302.53
2023-03-27T01:39:05.266Z,100312.03
2023-03-27T01:42:19.749Z,100305.72
2023-03-27T01:45:26.590Z,100316.66
2023-03-27T01:48:35.964Z,100304.84
2023-03-27T01:51:42.937Z,100310.09
2023-03-27T01:54:55.821Z,100318.44
2023-03-27T01:58:05.960Z,100317.47
2023-03-27T02:01:12.486Z,100325.09
2023-03-27T02:04:19.496Z,100324.88
2023-03-27T02:07:27.162Z,100336.47
2023-03-27T02:10:34.981Z,100345.22
2023-03-27T02:13:43.562Z,100352.38
2023-03-27T02:16:52.693Z,100346.72
2023-03-27T02:19:59.445Z,100357.97
2023-03-27T02:23:02.304Z,100355.91
2023-03-27T02:26:05.536Z,100370.31
2023-03-27T02:29:28.220Z,100376.22
2023-03-27T02:32:45.962Z,100372.56
2023-03-27T02:35:58.473Z,100375.63
2023-03-27T02:39:08.784Z,100374.66
2023-03-27T02:42:19.388Z,100388.47
2023-03-27T02:45:31.508Z,100386.03
2023-03-27T02:48:38.984Z,100406.41
2023-03-27T02:51:45.066Z,100403.25
2023-03-27T02:54:53.127Z,100405.13
2023-03-27T02:58:02.249Z,100418.06
2023-03-27T03:01:10.638Z,100421.97
2023-03-27T03:04:17.862Z,100426.00
2023-03-27T03:07:20.712Z,100426.06
2023-03-27T03:10:24.801Z,100432.41
2023-03-27T03:13:27.544Z,100436.75
2023-03-27T03:16:32.156Z,100439.88
2023-03-27T03:19:34.969Z,100450.09
2023-03-27T03:22:39.846Z,100456.44
2023-03-27T03:25:44.129Z,100456.91
2023-03-27T03:29:01.052Z,100466.31
2023-03-27T03:32:06.869Z,100478.38
2023-03-27T03:35:10.124Z,100468.22
2023-03-27T03:38:12.942Z,100468.97
2023-03-27T03:41:15.841Z,100485.53
2023-03-27T03:44:18.597Z,100477.34
2023-03-27T03:47:22.781Z,100481.59
2023-03-27T03:50:25.645Z,100491.47
2023-03-27T03:53:28.346Z,100500.22
2023-03-27T03:56:31.587Z,100494.59
2023-03-27T03:59:34.301Z,100496.47
2023-03-27T04:02:40.633Z,100495.41
2023-03-27T04:05:43.884Z,100506.47
2023-03-27T04:08:46.582Z,100520.06
2023-03-27T04:11:49.330Z,100521.31
2023-03-27T04:14:52.207Z,100525.34
2023-03-27T04:17:57.727Z,100540.31
2023-03-27T04:21:00.768Z,100537.00
2023-03-27T04:24:03.617Z,100542.84
2023-03-27T04:27:07.284Z,100553.47
2023-03-27T04:30:13.962Z,100551.59
2023-03-27T04:33:19.397Z,100554.72
2023-03-27T04:36:22.548Z,100561.00
2023-03-27T04:39:26.561Z,100560.56
2023-03-27T04:42:29.283Z,100559.94
2023-03-27T04:45:32.305Z,100570.38
2023-03-27T04:48:38.557Z,100568.50
2023-03-27T04:51:41.940Z,100571.19
2023-03-27T04:54:45.232Z,100569.97
2023-03-27T04:57:48.580Z,100576.81
2023-03-27T05:00:51.450Z,100580.53
2023-03-27T05:03:56.272Z,100583.91
2023-03-27T05:07:00.977Z,100584.09
2023-03-27T05:10:03.946Z,100594.91
2023-03-27T05:13:06.679Z,100604.88
2023-03-27T05:16:10.583Z,100604.47
2023-03-27T05:19:14.634Z,100607.59
2023-03-27T05:22:17.407Z,100607.59
2023-03-27T05:25:20.260Z,100624.84
2023-03-27T05:28:23.022Z,100625.53
2023-03-27T05:31:26.095Z,100629.50
2023-03-27T05:34:30.298Z,100628.72
2023-03-27T05:37:33.835Z,100635.78
2023-03-27T05:40:36.607Z,100639.94
2023-03-27T05:43:39.333Z,100647.44
2023-03-27T05:46:42.563Z,100650.16
2023-03-27T05:49:46.676Z,100665.38
2023-03-27T05:52:56.454Z,100663.31
2023-03-27T05:56:03.218Z,100663.31
2023-03-27T05:59:06.652Z,100674.53
2023-03-27T06:02:11.102Z,100676.44
2023-03-27T06:05:15.452Z,100683.13
2023-03-27T06:08:18.414Z,100694.16
2023-03-27T06:11:21.192Z,100701.47
2023-03-27T06:14:23.980Z,100694.97
2023-03-27T06:17:26.997Z,100697.44
2023-03-27T06:20:31.527Z,100705.28
2023-03-27T06:23:34.445Z,100719.41
2023-03-27T06:26:38.036Z,100721.75
2023-03-27T06:29:41.643Z,100714.94
2023-03-27T06:32:46.427Z,100717.00
2023-03-27T06:35:53.117Z,100727.47
2023-03-27T06:38:56.728Z,100730.97
2023-03-27T06:41:59.584Z,100728.47
2023-03-27T06:45:02.334Z,100735.97
2023-03-27T06:48:12.277Z,100742.00
2023-03-27T06:51:23.136Z,100737.94
2023-03-27T06:54:25.975Z,100747.22
2023-03-27T06:57:28.776Z,100747.09
2023-03-27T07:00:35.169Z,100746.16
2023-03-27T07:03:38.803Z,100756.06
2023-03-27T07:06:43.109Z,100758.69
2023-03-27T07:09:45.948Z,100768.34
2023-03-27T07:12:49.353Z,100764.25
2023-03-27T07:15:52.359Z,100763.16
2023-03-27T07:18:55.834Z,100769.78
2023-03-27T07:21:59.916Z,100770.03
2023-03-27T07:25:03.177Z,100773.38
2023-03-27T07:28:07.212Z,100770.56
2023-03-27T07:31:27.627Z,100780.22
2023-03-27T07:34:35.102Z,100788.91
2023-03-27T07:37:39.846Z,100794.09
2023-03-27T07:40:44.361Z,100793.00
2023-03-27T07:43:47.149Z,100802.19
2023-03-27T07:46:52.207Z,100801.56
2023-03-27T07:49:55.002Z,100797.19
2023-03-27T07:52:59.475Z,100794.63
2023-03-27T07:59:23.200Z,100793.81
2023-03-27T08:02:26.005Z,100796.25
2023-03-27T08:05:29.098Z,100800.56
2023-03-27T08:08:33.712Z,100790.94
2023-03-27T08:11:37.567Z,100786.47
2023-03-27T08:14:40.282Z,100791.44
2023-03-27T08:17:43.089Z,100797.66
2023-03-27T08:20:47.927Z,100802.91
2023-03-27T08:23:52.067Z,100805.19
2023-03-27T08:26:55.169Z,100803.56
2023-03-27T08:29:58.249Z,100807.94
2023-03-27T08:33:02.492Z,100808.09
2023-03-27T08:36:07.129Z,100820.16
2023-03-27T08:39:13.049Z,100821.91
2023-03-27T08:42:19.303Z,100821.97
2023-03-27T08:45:27.134Z,100828.00
2023-03-27T08:48:35.046Z,100838.84
2023-03-27T08:51:43.871Z,100837.47
2023-03-27T08:54:58.342Z,100837.69
2023-03-27T08:58:01.327Z,100839.84
2023-03-27T09:01:09.775Z,100841.84
2023-03-27T09:04:28.068Z,100849.09
2023-03-27T09:07:38.238Z,100847.31
2023-03-27T09:10:47.953Z,100855.16
2023-03-27T09:13:52.656Z,100849.53
2023-03-27T09:17:00.599Z,100841.63
2023-03-27T09:20:12.346Z,100850.81
2023-03-27T09:23:20.485Z,100854.69
2023-03-27T09:26:31.847Z,100858.78
2023-03-27T09:29:40.468Z,100864.63
2023-03-27T09:32:44.102Z,100856.44
2023-03-27T09:35:47.485Z,100864.28
2023-03-27T09:38:53.377Z,100873.06
2023-03-27T09:42:00.586Z,100868.56
2023-03-27T09:45:13.821Z,100875.91
2023-03-27T09:48:27.124Z,100872.09
2023-03-27T09:51:38.482Z,100870.94
2023-03-27T09:54:53.594Z,100866.16
2023-03-27T09:58:10.148Z,100865.38
2023-03-27T10:01:16.835Z,100865.94
2023-03-27T10:04:23.073Z,100875.41
2023-03-27T10:07:26.910Z,100863.69
2023-03-27T10:10:32.615Z,100871.25
2023-03-27T10:13:36.802Z,100887.25
2023-03-27T10:16:41.642Z,100888.28
2023-03-27T10:19:46.543Z,100884.69
2023-03-27T10:22:54.685Z,100887.91
2023-03-27T10:26:01.610Z,100890.25
2023-03-27T10:29:23.268Z,100886.50
2023-03-27T10:32:44.431Z,100887.00
2023-03-27T10:35:49.467Z,100892.78
2023-03-27T10:38:57.315Z,100897.63
2023-03-27T10:42:04.144Z,100913.22
2023-03-27T10:45:17.514Z,100913.34
2023-03-27T10:48:34.802Z,100912.03
2023-03-27T10:51:47.888Z,100900.66
2023-03-27T10:55:06.776Z,100902.44
2023-03-27T10:58:23.558Z,100915.44
2023-03-27T11:01:32.362Z,100911.53
2023-03-27T11:04:44.416Z,100906.88
2023-03-27T11:07:51.446Z,100903.44
2023-03-27T11:10:59.097Z,100902.94
2023-03-27T11:14:05.841Z,100892.31
2023-03-27T11:17:14.219Z,100908.47
2023-03-27T11:20:26.244Z,100903.22
2023-03-27T11:23:35.050Z,100907.44
2023-03-27T11:26:48.957Z,100911.59
2023-03-27T11:30:00.885Z,100902.84
2023-03-27T11:33:24.303Z,100918.44
2023-03-27T11:36:43.539Z,100922.22
2023-03-27T11:39:51.715Z,100923.78
2023-03-27T11:42:54.480Z,100918.00
2023-03-27T11:46:06.901Z,100917.25
2023-03-27T11:49:27.275Z,100922.22
2023-03-27T11:52:45.126Z,100926.88
2023-03-27T11:56:04.269Z,100925.34
2023-03-27T11:59:22.465Z,100929.75
2023-03-27T12:02:42.432Z,100926.06
2023-03-27T12:05:59.340Z,100930.47
2023-03-27T12:09:15.771Z,100914.25
2023-03-27T12:12:35.513Z,100931.53
2023-03-27T12:16:01.269Z,100926.53
2023-03-27T12:19:28.462Z,100928.56
2023-03-27T12:22:45.682Z,100918.41
2023-03-27T12:26:02.597Z,100925.91
2023-03-27T12:29:23.819Z,100919.47
2023-03-27T12:32:45.583Z,100927.56
2023-03-27T12:35:51.627Z,100928.44
2023-03-27T12:42:44.433Z,100928.81
2023-03-27T12:46:11.070Z,100932.97
2023-03-27T12:49:47.037Z,100943.16
2023-03-27T12:52:53.093Z,100943.84
2023-03-27T12:56:36.127Z,100937.84
2023-03-27T12:59:51.558Z,100944.66
2023-03-27T13:03:32.664Z,100945.50
2023-03-27T13:06:45.421Z,100947.09
2023-03-27T13:10:02.670Z,100966.97
2023-03-27T13:13:25.317Z,100979.66
2023-03-27T13:16:49.482Z,101001.50
2023-03-27T13:20:08.285Z,100995.34
2023-03-27T13:23:25.352Z,100991.47
2023-03-27T13:26:41.696Z,100986.31
2023-03-27T13:29:51.329Z,100998.00
2023-03-27T13:36:24.790Z,101011.00
2023-03-27T13:39:40.338Z,101026.06
2023-03-27T13:42:46.126Z,101009.63
2023-03-27T13:45:52.126Z,101003.25
2023-03-27T13:49:08.045Z,100990.38
2023-03-27T13:52:33.606Z,100992.03
2023-03-27T13:56:00.598Z,101007.94
2023-03-27T13:59:27.781Z,100994.50
2023-03-27T14:03:04.005Z,100999.00
2023-03-27T14:06:33.385Z,101002.47
2023-03-27T14:09:53.417Z,101000.91
2023-03-27T14:13:11.670Z,101001.84
2023-03-27T14:16:41.324Z,101000.56
2023-03-27T14:20:24.006Z,101002.63
2023-03-27T14:23:30.739Z,100999.69
2023-03-27T14:26:37.972Z,101001.91
2023-03-27T14:29:40.760Z,101004.41
2023-03-27T14:32:44.524Z,101006.03
2023-03-27T14:35:54.077Z,100996.91
2023-03-27T14:39:02.417Z,100993.91
2023-03-27T14:42:17.623Z,100997.66
2023-03-27T14:45:23.555Z,100998.13
2023-03-27T14:48:31.108Z,101008.25
2023-03-27T14:51:41.982Z,101002.88
2023-03-27T14:54:54.722Z,100989.25
2023-03-27T14:58:10.910Z,100992.00
2023-03-27T15:01:17.163Z,100992.94
2023-03-27T15:04:20.850Z,100991.09
2023-03-27T15:07:28.867Z,100998.97
2023-03-27T15:10:32.972Z,100989.66
2023-03-27T15:13:37.926Z,101000.34
2023-03-27T15:16:41.581Z,100995.94
2023-03-27T15:19:49.090Z,100991.28
2023-03-27T15:23:00.928Z,100986.78
2023-03-27T15:26:07.463Z,100992.13
2023-03-27T15:29:18.902Z,100996.03
2023-03-27T15:32:22.214Z,100986.88
2023-03-27T15:35:33.501Z,100996.09
2023-03-27T15:38:37.515Z,100989.94
2023-03-27T15:41:44.507Z,100996.63
2023-03-27T15:44:48.755Z,100989.59
2023-03-27T15:48:01.883Z,100998.47
2023-03-27T15:51:07.126Z,101005.59
2023-03-27T15:54:25.454Z,101008.38
2023-03-27T15:57:30.645Z,101025.22
2023-03-27T16:00:35.185Z,101035.13
2023-03-27T16:03:38.684Z,101055.41
2023-03-27T16:06:45.474Z,101059.19
2023-03-27T16:09:55.958Z,101066.47
2023-03-27T16:13:02.584Z,101064.78
2023-03-27T16:16:22.605Z,101058.69
2023-03-27T16:19:25.737Z,101055.03
2023-03-27T16:22:31.345Z,101057.75
2023-03-27T16:25:34.390Z,101050.94
2023-03-27T16:28:37.384Z,101051.72
2023-03-27T16:31:42.885Z,101055.16
2023-03-27T16:34:47.802Z,101056.75
2023-03-27T16:37:51.155Z,101053.28
2023-03-27T16:40:53.852Z,101065.03
2023-03-27T16:43:56.871Z,101059.44
2023-03-27T16:47:01.205Z,101072.09
2023-03-27T16:53:10.327Z,101071.13
2023-03-27T16:56:13.671Z,101074.09
2023-03-27T16:59:16.484Z,101073.28
2023-03-27T17:02:20.809Z,101083.72
2023-03-27T17:05:23.570Z,101084.56
2023-03-27T17:08:26.705Z,101107.41
2023-03-27T17:11:29.570Z,101109.34
2023-03-27T17:14:32.355Z,101111.81
2023-03-27T17:17:36.635Z,101121.69
2023-03-27T17:20:39.484Z,101125.28
2023-03-27T17:23:43.622Z,101134.44
2023-03-27T17:26:46.633Z,101129.88
2023-03-27T17:29:49.346Z,101132.56
2023-03-27T17:32:53.697Z,101145.56
2023-03-27T17:35:57.223Z,101141.38
2023-03-27T17:39:04.299Z,101146.59
2023-03-27T17:42:07.468Z,101146.16
2023-03-27T17:45:11.112Z,101150.78
2023-03-27T17:48:15.609Z,101146.81
2023-03-27T17:51:18.336Z,101152.88
2023-03-27T17:54:21.202Z,101155.78
2023-03-27T17:57:24.077Z,101143.25
2023-03-27T18:00:27.474Z,101142.00
2023-03-27T18:03:31.735Z,101142.00
2023-03-27T18:06:34.553Z,101145.09
2023-03-27T18:09:37.410Z,101145.53
2023-03-27T18:12:40.355Z,101144.09
2023-03-27T18:15:43.212Z,101145.31
2023-03-27T18:18:47.964Z,101142.38
2023-03-27T18:21:50.725Z,101152.84
2023-03-27T18:24:53.697Z,101169.97
2023-03-27T18:27:56.677Z,101172.09
2023-03-27T18:31:01.869Z,101182.13
2023-03-27T18:34:06.180Z,101177.66
2023-03-27T18:37:09.157Z,101178.78
2023-03-27T18:40:15.244Z,101176.72
2023-03-27T18:43:18.303Z,101163.06
2023-03-27T18:46:21.298Z,101165.75
2023-03-27T18:49:25.784Z,101165.88
2023-03-27T18:52:29.138Z,101164.53
2023-03-27T18:55:32.460Z,101161.06
2023-03-27T18:58:35.996Z,101163.34
2023-03-27T19:01:39.586Z,101169.81
2023-03-27T19:04:44.183Z,101151.25
2023-03-27T19:07:47.089Z,101155.69
2023-03-27T19:10:50.194Z,101155.22
2023-03-27T19:13:52.915Z,101152.78
2023-03-27T19:16:56.037Z,101145.00
2023-03-27T19:20:00.220Z,101155.03
2023-03-27T19:23:03.351Z,101153.19
2023-03-27T19:26:10.816Z,101149.38
2023-03-27T19:29:13.850Z,101143.97
2023-03-27T19:32:16.768Z,101145.63
2023-03-27T19:35:21.164Z,101150.00
2023-03-27T19:38:24.044Z,101153.53
2023-03-27T19:41:27.040Z,101149.94
2023-03-27T19:44:29.902Z,101150.75
2023-03-27T19:47:32.833Z,101133.44
2023-03-27T19:50:36.999Z,101142.00
2023-03-27T19:53:39.969Z,101144.22
2023-03-27T19:56:42.677Z,101131.97
2023-03-27T19:59:45.668Z,101130.88
2023-03-27T20:02:48.446Z,101135.22
2023-03-27T20:05:54.138Z,101137.47
2023-03-27T20:08:57.807Z,101135.09
2023-03-27T20:12:00.559Z,101128.63
2023-03-27T20:18:10.408Z,101140.47
2023-03-27T20:21:15.773Z,101137.97
2023-03-27T20:24:18.829Z,101128.44
2023-03-27T20:27:21.613Z,101123.50
2023-03-27T20:30:25.061Z,101125.00
2023-03-27T20:33:27.802Z,101127.47
2023-03-27T20:36:33.313Z,101121.75
2023-03-27T20:39:39.166Z,101123.00
2023-03-27T20:42:47.142Z,101120.66
2023-03-27T20:45:52.106Z,101120.56
2023-03-27T20:48:55.969Z,101127.94
2023-03-27T20:52:00.708Z,101127.03
2023-03-27T20:55:03.587Z,101135.97
2023-03-27T20:58:07.404Z,101131.22
2023-03-27T21:01:11.873Z,101131.50
2023-03-27T21:04:15.906Z,101119.66
2023-03-27T21:07:20.463Z,101101.84
2023-03-27T21:10:24.664Z,101105.97
2023-03-27T21:13:27.656Z,101121.63
2023-03-27T21:16:30.571Z,101112.22
2023-03-27T21:19:33.611Z,101120.91
2023-03-27T21:22:37.735Z,101115.25
2023-03-27T21:25:40.716Z,101125.81
2023-03-27T21:28:43.578Z,101126.91
2023-03-27T21:31:46.504Z,101120.53
2023-03-27T21:34:49.498Z,101113.19
2023-03-27T21:37:53.585Z,101111.00
2023-03-27T21:40:56.610Z,101110.28
2023-03-27T21:43:59.331Z,101101.66
2023-03-27T21:47:02.224Z,101107.72
2023-03-27T21:50:05.820Z,101106.84
2023-03-27T21:53:09.990Z,101109.22
2023-03-27T21:56:13.054Z,101115.66
2023-03-27T21:59:16.034Z,101117.34
2023-03-27T22:02:19.003Z,101111.97
2023-03-27T22:05:22.209Z,101121.00
2023-03-27T22:08:26.918Z,101125.91
2023-03-27T22:11:29.785Z,101131.75
2023-03-27T22:14:32.735Z,101131.19
2023-03-27T22:17:36.739Z,101140.16
2023-03-27T22:20:39.655Z,101132.50
2023-03-27T22:23:43.974Z,101124.75
2023-03-27T22:26:46.955Z,101147.28
2023-03-27T22:29:49.763Z,101151.34
2023-03-27T22:32:52.736Z,101152.41
2023-03-27T22:35:55.745Z,101141.38
2023-03-27T22:39:00.517Z,101151.13
2023-03-27T22:42:03.407Z,101153.09
2023-03-27T22:45:07.528Z,101159.00
2023-03-27T22:48:10.507Z,101152.88
2023-03-27T22:51:14.186Z,101150.16
2023-03-27T22:54:18.596Z,101153.75
2023-03-27T22:57:21.517Z,101156.84
2023-03-27T23:00:24.257Z,101165.19
2023-03-27T23:03:28.399Z,101167.78
2023-03-27T23:06:31.382Z,101174.47
2023-03-27T23:09:35.464Z,101164.97
2023-03-27T23:12:38.337Z,101170.00
2023-03-27T23:15:41.062Z,101176.81
2023-03-27T23:18:43.858Z,101188.34
2023-03-27T23:21:46.782Z,101183.63
2023-03-27T23:24:50.954Z,101184.44
2023-03-27T23:27:53.781Z,101190.94
2023-03-27T23:30:59.084Z,101206.88
2023-03-27T23:34:01.997Z,101210.84
2023-03-27T23:37:04.861Z,101208.22
2023-03-27T23:40:10.569Z,101209.50
2023-03-27T23:43:13.448Z,101206.03
2023-03-27T23:46:16.789Z,101218.72
2023-03-27T23:49:19.617Z,101221.13
2023-03-27T23:52:22.485Z,101218.47
2023-03-27T23:55:26.601Z,101232.78
2023-03-27T23:58:32.632Z,101250.56
